fecha-hora | temperatura | viento dirección-velocidad-rachas | humedad | presión

  • 11-04-2019 21:00:00 | 12.30°C | Nordeste-12.00 km/h - 25.00 km/h | 39.00% | 939.60 hPa
  • 11-04-2019 20:00:00 | 13.50°C | Nordeste-12.00 km/h - 29.00 km/h | 36.00% | 939.10 hPa
  • 11-04-2019 19:00:00 | 14.10°C | Norte-10.00 km/h - 26.00 km/h | 35.00% | 938.90 hPa
  • 11-04-2019 18:00:00 | 15.40°C | Nordeste-11.00 km/h - 27.00 km/h | 34.00% | 938.90 hPa
  • 11-04-2019 17:00:00 | 15.00°C | Norte-9.00 km/h - 23.00 km/h | 35.00% | 939.00 hPa
  • 11-04-2019 16:00:00 | 15.90°C | Norte-7.00 km/h - 27.00 km/h | 34.00% | 939.20 hPa
  • 11-04-2019 15:00:00 | 14.00°C | Nordeste-11.00 km/h - 26.00 km/h | 37.00% | 939.50 hPa
  • 11-04-2019 14:00:00 | 13.30°C | Nordeste-6.00 km/h - 23.00 km/h | 41.00% | 939.80 hPa
  • 11-04-2019 13:00:00 | 14.40°C | Nordeste-9.00 km/h - 25.00 km/h | 40.00% | 940.30 hPa
  • 11-04-2019 12:00:00 | 11.40°C | Nordeste-9.00 km/h - 21.00 km/h | 46.00% | 940.40 hPa
  • 11-04-2019 11:00:00 | 10.50°C | Nordeste-8.00 km/h - 20.00 km/h | 50.00% | 940.30 hPa
  • 11-04-2019 10:00:00 | 7.90°C | Nordeste-5.00 km/h - 13.00 km/h | 59.00% | 940.30 hPa
  • 11-04-2019 09:00:00 | 6.10°C | Nordeste-6.00 km/h - 15.00 km/h | 66.00% | 940.20 hPa
  • 11-04-2019 08:00:00 | 4.70°C | Calma-0.00 km/h - 6.00 km/h | 67.00% | 939.70 hPa
  • 11-04-2019 07:00:00 | 6.20°C | Este-2.00 km/h - 20.00 km/h | 61.00% | 939.40 hPa
  • 11-04-2019 06:00:00 | 6.50°C | Nordeste-9.00 km/h - 17.00 km/h | 61.00% | 939.10 hPa
  • 11-04-2019 05:00:00 | 7.10°C | Nordeste-11.00 km/h - 22.00 km/h | 59.00% | 938.80 hPa
  • 11-04-2019 04:00:00 | 7.30°C | Nordeste-5.00 km/h - 17.00 km/h | 60.00% | 938.60 hPa
  • 11-04-2019 03:00:00 | 7.90°C | Nordeste-10.00 km/h - 23.00 km/h | 58.00% | 938.80 hPa
  • 11-04-2019 02:00:00 | 8.60°C | Nordeste-5.00 km/h - 24.00 km/h | 56.00% | 938.80 hPa
  • 11-04-2019 01:00:00 | 9.20°C | Nordeste-9.00 km/h - 17.00 km/h | 52.00% | 938.60 hPa
  • 11-04-2019 00:00:00 | 9.70°C | Norte-7.00 km/h - 17.00 km/h | 49.00% | 938.30 hPa
  • 10-04-2019 23:00:00 | 9.90°C | Norte-8.00 km/h - 19.00 km/h | 46.00% | 937.70 hPa
  • 10-04-2019 22:00:00 | 10.50°C | Norte-9.00 km/h - 22.00 km/h | 46.00% | 937.30 hPa
    • diseño web asturias Información sobre el estado de las mareas, altura de la marejada, temperatura del agua y otros datos de Gijón en Asturias.

      Surf Gijón